Time;durP1;ratioP1;P1;durP2;ratioP2;P2;SDS_P1;SDS_P2;PMS_P1;PMS_P2;Temp;Humidity;BMP_temperature;BMP_pressure;BME280_temperature;BME280_humidity;BME280_pressure;Samples;Min_cycle;Max_cycle;Signal;HPM_P1;HPM_P2
2023/01/21 00:00:53;;;;;;;15.68;4.20;;;3.80;99.90;;;;;;5061670;28;20021;-74
2023/01/21 00:03:19;;;;;;;10.35;3.90;;;3.80;99.90;;;;;;5069093;28;20029;-74
2023/01/21 00:05:44;;;;;;;10.30;3.65;;;3.70;99.90;;;;;;5056523;28;20033;-75
2023/01/21 00:08:10;;;;;;;10.05;4.40;;;3.70;99.90;;;;;;5049522;28;20115;-73
2023/01/21 00:10:36;;;;;;;6.70;3.90;;;3.80;99.90;;;;;;5049377;28;20132;-74
2023/01/21 00:13:02;;;;;;;11.68;4.15;;;3.80;99.90;;;;;;5065692;28;20039;-74
2023/01/21 00:15:28;;;;;;;9.30;4.07;;;3.70;99.90;;;;;;5013787;28;1244366;-74
2023/01/21 00:17:53;;;;;;;11.93;4.07;;;3.70;99.90;;;;;;5056175;28;20565;-73
2023/01/21 00:20:20;;;;;;;11.80;4.82;;;3.70;99.90;;;;;;5059545;28;20012;-73
2023/01/21 00:22:45;;;;;;;14.00;4.40;;;3.60;99.90;;;;;;5055047;28;20017;-74
2023/01/21 00:25:11;;;;;;;10.43;4.65;;;3.60;99.90;;;;;;5058427;28;20040;-73
2023/01/21 00:27:37;;;;;;;11.60;4.82;;;3.60;99.90;;;;;;5057522;28;20486;-74
2023/01/21 00:30:04;;;;;;;13.45;4.97;;;3.60;99.90;;;;;;5059941;28;20032;-73
2023/01/21 00:32:30;;;;;;;12.85;4.70;;;3.70;99.90;;;;;;5049677;28;20029;-73
2023/01/21 00:34:55;;;;;;;12.82;4.25;;;3.70;99.90;;;;;;5058635;28;20162;-75
2023/01/21 00:37:23;;;;;;;12.52;4.28;;;3.70;99.90;;;;;;5065290;28;20032;-72
2023/01/21 00:39:48;;;;;;;22.23;5.05;;;3.70;99.90;;;;;;5055987;28;20024;-73
2023/01/21 00:42:14;;;;;;;17.48;5.15;;;3.70;99.90;;;;;;5071864;28;20604;-72
2023/01/21 00:44:39;;;;;;;12.27;4.78;;;3.70;99.90;;;;;;5058668;28;20482;-73
2023/01/21 00:47:06;;;;;;;12.68;4.53;;;3.60;99.90;;;;;;5068991;28;20491;-73
2023/01/21 00:49:32;;;;;;;9.27;4.97;;;3.70;99.90;;;;;;5068759;28;20521;-74
2023/01/21 00:51:58;;;;;;;11.13;5.10;;;3.60;99.90;;;;;;5074117;28;20108;-73
2023/01/21 00:54:24;;;;;;;12.15;4.88;;;3.60;99.90;;;;;;5062379;28;20127;-73
2023/01/21 00:56:50;;;;;;;14.85;5.55;;;3.60;99.90;;;;;;5055620;28;20024;-73
2023/01/21 00:59:16;;;;;;;10.68;5.18;;;3.60;99.90;;;;;;5069709;28;20032;-72
2023/01/21 01:01:41;;;;;;;14.00;6.30;;;3.60;99.90;;;;;;5057282;28;20474;-73
2023/01/21 01:04:09;;;;;;;19.25;5.18;;;3.60;99.90;;;;;;5052193;28;20061;-73
2023/01/21 01:06:35;;;;;;;12.82;5.60;;;3.60;99.90;;;;;;5054565;28;20519;-74
2023/01/21 01:09:01;;;;;;;14.13;5.63;;;3.50;99.90;;;;;;5052373;28;20025;-75
2023/01/21 01:11:28;;;;;;;14.70;5.95;;;3.50;99.90;;;;;;5053750;28;20512;-75
2023/01/21 01:13:54;;;;;;;11.90;6.18;;;3.50;99.90;;;;;;5056689;28;20033;-74
2023/01/21 01:16:21;;;;;;;16.02;6.07;;;3.50;99.90;;;;;;5054432;28;20401;-74
2023/01/21 01:18:47;;;;;;;11.95;6.40;;;3.40;99.90;;;;;;5068408;28;20116;-73
2023/01/21 01:21:16;;;;;;;15.70;5.97;;;3.40;1.00;;;;;;5065274;28;20059;-74
2023/01/21 01:23:42;;;;;;;17.38;6.22;;;3.40;1.00;;;;;;5061449;28;20045;-74
2023/01/21 01:26:11;;;;;;;20.25;7.00;;;3.30;1.00;;;;;;5070835;28;20564;-74
2023/01/21 01:28:38;;;;;;;17.98;6.63;;;3.30;1.00;;;;;;5055368;28;20041;-74
2023/01/21 01:31:05;;;;;;;10.73;5.90;;;3.20;1.00;;;;;;5055499;28;20025;-74
2023/01/21 01:33:32;;;;;;;19.50;6.28;;;3.20;1.00;;;;;;5053108;28;20057;-73
2023/01/21 01:36:07;;;;;;;18.38;7.38;;;3.10;1.00;;;;;;5051659;28;20490;-74
2023/01/21 01:38:36;;;;;;;18.00;7.30;;;3.10;1.00;;;;;;5053191;28;20021;-73
2023/01/21 01:41:01;;;;;;;17.30;7.00;;;3.20;1.00;;;;;;5068706;28;20214;-73
2023/01/21 01:43:49;;;;;;;17.75;7.05;;;3.10;1.00;;;;;;5066916;28;20536;-74
2023/01/21 01:46:15;;;;;;;13.40;6.47;;;3.00;1.00;;;;;;5058192;28;20444;-74
2023/01/21 01:48:46;;;;;;;16.83;7.18;;;3.00;1.00;;;;;;5063571;28;20516;-74
2023/01/21 01:51:14;;;;;;;14.77;7.15;;;3.00;9.00;;;;;;5067978;28;20035;-74
2023/01/21 01:53:43;;;;;;;12.77;7.10;;;3.00;15.00;;;;;;5052510;28;20044;-74
2023/01/21 01:56:09;;;;;;;16.02;7.55;;;3.00;24.40;;;;;;5064183;28;20028;-73
2023/01/21 01:58:35;;;;;;;15.38;6.63;;;2.90;32.80;;;;;;5052957;28;20021;-74
2023/01/21 02:01:01;;;;;;;20.60;7.43;;;3.00;53.20;;;;;;5054654;28;20028;-74
2023/01/21 02:03:49;;;;;;;14.88;6.32;;;2.90;65.30;;;;;;5060457;28;20400;-74
2023/01/21 02:06:16;;;;;;;14.65;6.43;;;2.90;78.90;;;;;;5071824;28;20033;-75
2023/01/21 02:08:45;;;;;;;19.88;7.10;;;2.80;82.20;;;;;;5072357;28;20029;-73
2023/01/21 02:11:16;;;;;;;18.15;7.55;;;2.80;85.20;;;;;;5055842;28;20052;-74
2023/01/21 02:13:45;;;;;;;21.08;7.60;;;2.70;91.20;;;;;;5053507;28;20116;-74
2023/01/21 02:16:32;;;;;;;19.13;6.90;;;2.60;91.10;;;;;;5064675;28;20135;-75
2023/01/21 02:19:27;;;;;;;19.70;6.80;;;2.50;95.60;;;;;;5070170;28;20128;-73
2023/01/21 02:22:20;;;;;;;19.15;7.07;;;2.50;97.70;;;;;;5031609;28;20053;-73
2023/01/21 02:25:23;;;;;;;17.92;6.72;;;2.40;99.90;;;;;;5046524;28;20033;-73
2023/01/21 02:28:28;;;;;;;15.48;7.30;;;2.30;99.90;;;;;;5056628;28;20049;-74
2023/01/21 02:31:08;;;;;;;16.50;7.32;;;2.30;99.90;;;;;;5067280;28;20039;-74
2023/01/21 02:33:52;;;;;;;16.42;7.68;;;2.10;99.90;;;;;;5059195;28;20037;-74
2023/01/21 02:36:40;;;;;;;18.67;7.50;;;2.10;99.90;;;;;;5056493;28;20066;-74
2023/01/21 02:39:15;;;;;;;19.50;7.95;;;2.20;99.90;;;;;;5071066;28;20047;-72
2023/01/21 02:41:52;;;;;;;21.33;8.05;;;2.30;99.90;;;;;;5071543;28;20021;-73
2023/01/21 02:44:41;;;;;;;15.15;6.95;;;2.40;99.90;;;;;;5069826;28;20032;-73
2023/01/21 02:47:06;;;;;;;18.00;7.40;;;2.30;99.90;;;;;;5051977;28;20028;-73
2023/01/21 02:49:52;;;;;;;13.60;7.38;;;2.40;99.90;;;;;;5051895;28;20033;-74
2023/01/21 02:52:20;;;;;;;18.27;7.55;;;2.60;99.90;;;;;;5055954;28;20475;-72
2023/01/21 02:55:00;;;;;;;23.20;8.07;;;2.70;99.90;;;;;;5062056;28;20047;-74
2023/01/21 02:57:44;;;;;;;17.77;8.27;;;2.70;99.90;;;;;;5071081;28;20043;-73
2023/01/21 03:00:35;;;;;;;24.60;8.40;;;2.70;1.00;;;;;;5069881;28;20140;-74
2023/01/21 03:03:10;;;;;;;19.17;7.25;;;2.60;1.00;;;;;;5070979;28;20028;-74
2023/01/21 03:05:51;;;;;;;15.93;7.00;;;2.50;1.00;;;;;;5070602;28;20059;-74
2023/01/21 03:08:26;;;;;;;20.23;7.32;;;2.50;1.00;;;;;;5052595;28;20025;-72
2023/01/21 03:11:16;;;;;;;19.73;8.43;;;2.30;1.00;;;;;;5051295;28;20063;-74
2023/01/21 03:16:56;;;;;;;18.08;7.30;;;2.20;1.00;;;;;;5051533;28;20216;-74
2023/01/21 03:19:48;;;;;;;19.05;8.18;;;2.10;1.00;;;;;;5068358;28;20045;-73
2023/01/21 03:22:17;;;;;;;16.95;8.13;;;2.00;1.00;;;;;;5057704;28;20052;-73
2023/01/21 03:24:48;;;;;;;18.30;7.80;;;2.00;1.00;;;;;;5067689;28;20071;-75
2023/01/21 03:27:19;;;;;;;17.25;6.82;;;1.90;1.00;;;;;;5051059;28;20071;-74
2023/01/21 03:29:46;;;;;;;21.45;7.97;;;1.80;1.00;;;;;;5054373;28;20104;-74
2023/01/21 03:32:15;;;;;;;26.33;7.97;;;1.70;1.00;;;;;;5051174;28;20029;-74
2023/01/21 03:34:46;;;;;;;21.90;7.82;;;1.60;1.00;;;;;;5051226;28;20037;-74
2023/01/21 03:37:36;;;;;;;19.13;7.82;;;1.60;1.00;;;;;;5054151;28;20029;-74
2023/01/21 03:40:14;;;;;;;15.32;6.95;;;1.70;1.00;;;;;;5050914;28;20021;-73
2023/01/21 03:42:42;;;;;;;21.17;8.07;;;1.60;1.00;;;;;;5054263;28;20017;-73
2023/01/21 03:45:09;;;;;;;15.65;7.28;;;1.60;3.70;;;;;;5050194;28;20060;-74
2023/01/21 03:47:37;;;;;;;15.65;7.47;;;1.50;8.70;;;;;;5050964;28;20021;-74
2023/01/21 03:50:17;;;;;;;21.67;7.63;;;1.40;9.70;;;;;;5061540;28;20054;-74
2023/01/21 03:52:43;;;;;;;20.20;8.13;;;1.60;57.20;;;;;;5068460;28;20090;-73
2023/01/21 03:55:11;;;;;;;19.60;8.02;;;1.70;97.50;;;;;;5071142;28;20056;-74
2023/01/21 03:57:37;;;;;;;22.85;8.43;;;1.70;99.90;;;;;;5070610;28;20021;-74
2023/01/21 04:00:04;;;;;;;19.30;7.68;;;1.80;99.90;;;;;;5071850;28;20099;-74
2023/01/21 04:02:30;;;;;;;16.75;7.82;;;1.80;99.90;;;;;;5052118;28;20036;-75
2023/01/21 04:04:56;;;;;;;20.42;7.93;;;1.80;99.90;;;;;;5051727;28;20029;-74
2023/01/21 04:07:22;;;;;;;19.08;7.57;;;1.60;99.90;;;;;;5064102;28;20485;-74
2023/01/21 04:09:48;;;;;;;20.45;8.02;;;1.70;99.90;;;;;;5068309;28;20493;-74
2023/01/21 04:12:15;;;;;;;20.27;8.63;;;1.80;99.90;;;;;;5063680;28;20461;-74
2023/01/21 04:14:40;;;;;;;19.13;8.05;;;1.90;99.90;;;;;;5052364;28;20049;-73
2023/01/21 04:17:06;;;;;;;28.73;8.88;;;1.90;99.90;;;;;;5058565;28;20024;-73
2023/01/21 04:19:32;;;;;;;27.15;8.30;;;1.90;99.90;;;;;;5070694;28;20489;-73
2023/01/21 04:21:58;;;;;;;22.27;8.10;;;1.90;99.90;;;;;;5068136;28;20355;-73
2023/01/21 04:24:24;;;;;;;24.58;8.25;;;1.90;99.90;;;;;;5050701;28;20036;-74
2023/01/21 04:26:49;;;;;;;22.67;8.90;;;1.90;99.90;;;;;;5050374;28;20028;-74
2023/01/21 04:29:16;;;;;;;25.30;8.98;;;1.90;99.90;;;;;;5050673;28;20125;-73
2023/01/21 04:31:42;;;;;;;18.73;8.32;;;1.90;99.90;;;;;;5054023;28;20025;-73
2023/01/21 04:34:08;;;;;;;20.33;8.55;;;1.90;99.90;;;;;;5067557;28;20420;-73
2023/01/21 04:36:33;;;;;;;23.60;8.60;;;1.90;99.90;;;;;;5066662;28;20091;-73
2023/01/21 04:38:59;;;;;;;22.55;9.60;;;1.90;99.90;;;;;;5051982;28;20025;-73
2023/01/21 04:41:25;;;;;;;24.10;9.68;;;1.80;99.90;;;;;;5058377;28;20021;-73
2023/01/21 04:43:50;;;;;;;28.98;8.43;;;1.80;99.90;;;;;;5072940;28;20040;-73
2023/01/21 04:46:16;;;;;;;19.92;9.25;;;1.80;99.90;;;;;;5064812;28;20052;-74
2023/01/21 04:48:42;;;;;;;25.42;9.15;;;1.70;99.90;;;;;;5053650;28;20029;-74
2023/01/21 04:51:07;;;;;;;18.77;9.23;;;1.70;99.90;;;;;;5055777;28;20075;-73
2023/01/21 04:53:33;;;;;;;23.27;9.82;;;1.70;99.90;;;;;;5066699;28;20048;-74
2023/01/21 04:55:59;;;;;;;19.70;9.13;;;1.80;99.90;;;;;;5053774;28;20071;-75
2023/01/21 04:58:26;;;;;;;22.38;9.90;;;1.70;99.90;;;;;;5057801;28;20037;-73
2023/01/21 05:00:53;;;;;;;23.88;9.73;;;1.80;99.90;;;;;;5052322;28;20442;-74
2023/01/21 05:03:19;;;;;;;23.08;9.13;;;1.80;99.90;;;;;;5053786;28;20059;-74
2023/01/21 05:05:45;;;;;;;22.25;9.30;;;1.80;99.90;;;;;;5051943;28;20061;-74
2023/01/21 05:08:10;;;;;;;23.33;9.75;;;1.80;99.90;;;;;;5055653;28;20473;-74
2023/01/21 05:10:36;;;;;;;22.88;8.52;;;1.80;99.90;;;;;;5072164;28;20024;-74
2023/01/21 05:13:02;;;;;;;24.70;9.48;;;1.80;99.90;;;;;;5062669;28;20064;-73
2023/01/21 05:15:28;;;;;;;23.80;9.32;;;1.80;99.90;;;;;;5052330;28;20084;-73
2023/01/21 05:17:53;;;;;;;21.45;9.95;;;1.80;1.00;;;;;;5062071;28;20045;-74
2023/01/21 05:20:20;;;;;;;23.65;10.32;;;1.90;1.00;;;;;;5055544;28;20028;-73
2023/01/21 05:22:46;;;;;;;25.38;9.57;;;1.80;1.00;;;;;;5053083;28;20032;-74
2023/01/21 05:25:13;;;;;;;20.88;9.82;;;1.70;1.00;;;;;;5053503;28;20040;-73
2023/01/21 05:27:39;;;;;;;21.02;10.15;;;1.70;1.00;;;;;;5068162;28;20393;-74
2023/01/21 05:30:05;;;;;;;26.27;10.10;;;1.60;1.00;;;;;;5073590;28;20025;-74
2023/01/21 05:32:31;;;;;;;21.65;9.82;;;1.50;1.00;;;;;;5061313;28;20466;-73
2023/01/21 05:34:57;;;;;;;25.88;10.65;;;1.50;1.00;;;;;;5053098;28;20083;-74
2023/01/21 05:37:22;;;;;;;24.25;10.35;;;1.50;1.00;;;;;;5055604;28;20109;-73
2023/01/21 05:39:48;;;;;;;22.00;9.25;;;1.50;1.00;;;;;;5069619;28;20028;-73
2023/01/21 05:42:14;;;;;;;23.92;10.30;;;1.40;1.00;;;;;;5052718;28;20083;-73
2023/01/21 05:44:39;;;;;;;23.15;11.25;;;1.40;1.00;;;;;;5052050;28;20028;-73
2023/01/21 05:47:07;;;;;;;33.25;10.90;;;1.50;1.00;;;;;;5053935;28;20607;-75
2023/01/21 05:49:33;;;;;;;25.05;10.35;;;1.60;1.00;;;;;;5051573;28;20090;-73
2023/01/21 05:51:59;;;;;;;26.10;9.25;;;1.60;1.00;;;;;;5063546;28;20035;-73
2023/01/21 05:54:26;;;;;;;24.15;11.45;;;1.60;1.00;;;;;;5073048;28;20036;-73
2023/01/21 05:56:52;;;;;;;26.63;10.85;;;1.50;1.00;;;;;;5067016;28;20021;-74
2023/01/21 05:59:17;;;;;;;30.98;10.77;;;1.60;1.00;;;;;;5065746;28;20078;-73
2023/01/21 06:01:43;;;;;;;30.35;12.13;;;1.50;1.00;;;;;;5071699;28;20651;-74
2023/01/21 06:04:09;;;;;;;32.60;12.18;;;1.60;1.00;;;;;;5072674;28;20142;-74
2023/01/21 06:06:34;;;;;;;28.48;11.00;;;1.50;1.00;;;;;;5072881;28;20029;-74
2023/01/21 06:09:00;;;;;;;25.85;12.40;;;1.40;1.00;;;;;;5072857;28;20052;-74
2023/01/21 06:11:25;;;;;;;24.10;10.68;;;1.30;1.00;;;;;;5063817;28;20116;-74
2023/01/21 06:13:51;;;;;;;22.20;10.70;;;1.30;1.00;;;;;;5064317;28;20070;-73
2023/01/21 06:16:17;;;;;;;30.50;12.07;;;1.20;1.00;;;;;;5065464;28;20049;-74
2023/01/21 06:18:43;;;;;;;24.40;10.75;;;1.20;1.00;;;;;;5063751;28;20025;-73
2023/01/21 06:21:08;;;;;;;23.67;12.00;;;1.10;1.00;;;;;;5052603;28;20107;-73
2023/01/21 06:23:34;;;;;;;26.58;11.02;;;1.10;1.00;;;;;;5064639;28;20116;-73
2023/01/21 06:26:01;;;;;;;25.50;11.55;;;1.10;1.00;;;;;;5065799;28;20405;-74
2023/01/21 06:28:28;;;;;;;35.58;14.00;;;1.10;1.00;;;;;;5063614;28;20029;-74
2023/01/21 06:30:54;;;;;;;36.08;12.85;;;1.10;1.00;;;;;;5056599;28;20021;-74
2023/01/21 06:33:20;;;;;;;29.83;11.68;;;1.10;1.00;;;;;;5050740;28;20154;-73
2023/01/21 06:35:46;;;;;;;25.25;10.25;;;1.10;1.00;;;;;;5061855;28;20057;-72
2023/01/21 06:38:12;;;;;;;35.78;11.32;;;1.10;1.00;;;;;;5061833;28;20024;-73
2023/01/21 06:40:38;;;;;;;25.33;11.05;;;1.20;6.40;;;;;;5072166;28;20032;-74
2023/01/21 06:43:03;;;;;;;28.95;10.48;;;1.20;8.80;;;;;;5054830;28;20052;-74
2023/01/21 06:45:29;;;;;;;25.13;10.07;;;1.20;7.10;;;;;;5051739;28;20017;-73
2023/01/21 06:47:55;;;;;;;27.48;11.27;;;1.30;27.20;;;;;;5051991;28;20025;-73
2023/01/21 06:50:21;;;;;;;31.67;11.75;;;1.20;24.10;;;;;;5051827;28;20024;-74
2023/01/21 06:52:48;;;;;;;36.67;11.90;;;1.20;16.30;;;;;;5051801;28;20044;-74
2023/01/21 06:55:15;;;;;;;28.15;12.63;;;1.10;6.80;;;;;;5063501;28;20037;-74
2023/01/21 06:57:42;;;;;;;27.13;11.00;;;1.10;14.30;;;;;;5071743;28;20025;-72
2023/01/21 07:00:09;;;;;;;24.60;11.77;;;1.00;9.40;;;;;;5071694;28;20469;-74
2023/01/21 07:02:35;;;;;;;25.00;10.68;;;1.00;18.10;;;;;;5069344;28;20560;-75
2023/01/21 07:05:01;;;;;;;29.65;11.75;;;1.10;29.80;;;;;;5059848;28;20053;-74
2023/01/21 07:07:27;;;;;;;25.08;10.85;;;1.10;46.30;;;;;;5055496;28;20035;-75
2023/01/21 07:09:52;;;;;;;29.70;12.15;;;1.10;60.20;;;;;;5063735;28;20035;-74
2023/01/21 07:12:18;;;;;;;28.25;11.15;;;1.00;60.30;;;;;;5069668;28;20025;-73
2023/01/21 07:14:44;;;;;;;25.35;11.25;;;1.10;89.80;;;;;;5070945;28;20573;-73
2023/01/21 07:17:10;;;;;;;26.42;10.68;;;1.00;92.50;;;;;;5062548;28;20021;-72
2023/01/21 07:19:35;;;;;;;30.35;11.35;;;1.00;91.90;;;;;;5058982;28;20032;-74
2023/01/21 07:22:01;;;;;;;23.80;11.15;;;0.90;77.30;;;;;;5059787;28;20085;-75
2023/01/21 07:24:27;;;;;;;31.17;10.63;;;0.90;84.60;;;;;;5058880;28;20021;-75
2023/01/21 07:26:53;;;;;;;31.92;11.05;;;0.90;82.00;;;;;;5057800;28;20044;-74
2023/01/21 07:29:19;;;;;;;27.15;11.07;;;1.00;99.70;;;;;;5051788;28;20025;-74
2023/01/21 07:31:44;;;;;;;27.15;11.02;;;1.00;98.50;;;;;;5050157;28;20029;-73
2023/01/21 07:34:10;;;;;;;26.00;11.15;;;1.00;94.70;;;;;;5051041;28;20037;-73
2023/01/21 07:36:36;;;;;;;27.85;10.95;;;1.00;99.90;;;;;;5051431;28;20103;-74
2023/01/21 07:39:02;;;;;;;21.48;10.75;;;1.10;99.90;;;;;;5051010;28;20475;-74
2023/01/21 07:41:27;;;;;;;25.35;11.50;;;1.00;95.00;;;;;;5051665;28;20090;-74
2023/01/21 07:43:53;;;;;;;25.42;10.75;;;0.90;94.90;;;;;;5051599;28;20048;-74
2023/01/21 07:46:20;;;;;;;23.13;11.13;;;1.00;99.90;;;;;;5051324;28;20056;-75
2023/01/21 07:48:52;;;;;;;36.20;11.70;;;1.00;99.90;;;;;;5051550;28;20074;-74
2023/01/21 07:51:18;;;;;;;31.50;11.15;;;1.00;99.90;;;;;;5049913;28;20028;-74
2023/01/21 07:53:44;;;;;;;24.48;11.63;;;0.90;99.90;;;;;;5051297;28;20040;-74
2023/01/21 07:56:10;;;;;;;25.80;11.05;;;0.80;99.90;;;;;;5051308;28;20490;-74
2023/01/21 07:58:37;;;;;;;28.10;11.98;;;0.80;99.90;;;;;;5049778;28;20115;-74
2023/01/21 08:01:06;;;;;;;29.77;11.75;;;0.80;99.90;;;;;;5050980;28;20025;-75
2023/01/21 08:03:33;;;;;;;31.55;11.70;;;0.80;99.90;;;;;;5049558;28;20112;-74
2023/01/21 08:05:59;;;;;;;28.05;12.05;;;0.80;99.90;;;;;;5049482;28;20025;-74
2023/01/21 08:08:25;;;;;;;29.48;11.57;;;0.80;99.90;;;;;;5050677;28;20370;-73
2023/01/21 08:10:52;;;;;;;26.30;11.52;;;0.80;99.90;;;;;;5050775;28;20056;-74
2023/01/21 08:13:18;;;;;;;24.00;11.20;;;0.90;99.90;;;;;;5051300;28;20116;-74
2023/01/21 08:15:43;;;;;;;30.35;12.35;;;1.00;99.90;;;;;;5053280;28;20128;-73
2023/01/21 08:18:09;;;;;;;26.85;10.73;;;1.00;99.90;;;;;;5054519;28;20222;-74
2023/01/21 08:20:35;;;;;;;28.23;11.88;;;1.00;99.90;;;;;;5054647;28;20028;-74
2023/01/21 08:23:00;;;;;;;28.17;10.77;;;1.10;99.90;;;;;;5054688;28;20028;-73
2023/01/21 08:25:26;;;;;;;29.48;11.30;;;1.10;99.90;;;;;;5054848;28;20033;-75
2023/01/21 08:27:51;;;;;;;25.23;11.35;;;1.20;99.90;;;;;;5054646;28;20013;-75
2023/01/21 08:30:17;;;;;;;28.92;11.32;;;1.20;99.90;;;;;;5054538;28;20048;-74
2023/01/21 08:32:44;;;;;;;28.98;10.82;;;1.20;99.90;;;;;;5054180;28;20036;-74
2023/01/21 08:35:10;;;;;;;25.88;10.23;;;1.40;99.90;;;;;;5054429;28;20021;-73
2023/01/21 08:37:35;;;;;;;28.40;10.77;;;1.50;99.90;;;;;;5054370;28;20028;-73
2023/01/21 08:40:01;;;;;;;27.23;10.70;;;1.50;99.90;;;;;;5053118;28;20115;-73
2023/01/21 08:42:28;;;;;;;29.42;12.13;;;1.70;99.90;;;;;;5053082;28;20527;-74
2023/01/21 08:44:53;;;;;;;22.55;11.18;;;1.70;99.90;;;;;;5054690;28;20021;-73
2023/01/21 08:47:19;;;;;;;27.52;11.57;;;1.80;99.90;;;;;;5054699;28;20025;-75
2023/01/21 08:49:45;;;;;;;26.05;11.18;;;1.80;99.90;;;;;;5054115;28;20021;-74
2023/01/21 08:52:10;;;;;;;28.50;11.18;;;1.90;99.90;;;;;;5054071;28;20033;-74
2023/01/21 08:54:36;;;;;;;29.23;11.40;;;1.90;99.90;;;;;;5052862;28;20037;-73
2023/01/21 08:57:02;;;;;;;28.83;11.63;;;2.00;99.90;;;;;;5054120;28;20098;-74
2023/01/21 08:59:28;;;;;;;30.55;11.43;;;2.00;99.90;;;;;;5054151;28;20021;-74
2023/01/21 09:01:55;;;;;;;29.83;11.25;;;2.00;99.90;;;;;;5054149;28;20017;-75
2023/01/21 09:04:21;;;;;;;29.50;12.73;;;2.00;99.90;;;;;;5053908;28;20048;-74
2023/01/21 09:06:46;;;;;;;32.55;11.75;;;2.00;99.90;;;;;;5054280;28;20075;-74
2023/01/21 09:09:12;;;;;;;29.85;12.18;;;2.10;99.90;;;;;;5053736;28;20259;-74
2023/01/21 09:11:38;;;;;;;24.85;12.30;;;2.10;99.90;;;;;;5053819;28;20290;-75
2023/01/21 09:14:03;;;;;;;32.15;12.55;;;2.10;99.90;;;;;;5053579;28;20432;-74
2023/01/21 09:16:30;;;;;;;34.25;12.73;;;2.20;99.90;;;;;;5053486;28;20464;-73
2023/01/21 09:18:57;;;;;;;30.30;13.10;;;2.30;99.90;;;;;;5053605;28;20037;-73
2023/01/21 09:21:23;;;;;;;28.65;12.02;;;2.40;99.90;;;;;;5053528;28;20036;-73
2023/01/21 09:23:49;;;;;;;29.40;11.75;;;2.30;99.90;;;;;;5051753;28;20433;-73
2023/01/21 09:26:22;;;;;;;27.60;11.88;;;2.40;99.90;;;;;;5053406;28;20071;-74
2023/01/21 09:28:59;;;;;;;33.33;12.00;;;2.40;99.90;;;;;;5053691;28;20432;-74
2023/01/21 09:31:26;;;;;;;33.72;12.43;;;2.50;99.90;;;;;;5053459;28;20028;-73
2023/01/21 09:33:55;;;;;;;28.75;11.07;;;2.60;99.90;;;;;;5053142;28;20037;-73
2023/01/21 09:36:24;;;;;;;32.20;12.45;;;2.70;99.90;;;;;;5053242;28;20025;-74
2023/01/21 09:38:51;;;;;;;26.20;11.70;;;2.90;99.90;;;;;;5052032;28;20025;-73
2023/01/21 09:41:23;;;;;;;33.15;12.65;;;3.00;99.90;;;;;;5053443;28;20028;-76
2023/01/21 09:44:04;;;;;;;27.95;11.82;;;3.00;99.90;;;;;;5053616;28;20031;-75
2023/01/21 09:46:55;;;;;;;35.00;12.63;;;3.00;99.90;;;;;;5053321;28;20059;-75
2023/01/21 09:49:26;;;;;;;30.77;12.05;;;3.10;99.90;;;;;;5051929;28;20105;-73
2023/01/21 09:52:01;;;;;;;33.72;13.02;;;3.20;99.90;;;;;;5053015;28;20021;-73
2023/01/21 09:54:32;;;;;;;29.02;13.50;;;3.20;99.90;;;;;;5053062;28;20083;-74
2023/01/21 09:57:19;;;;;;;33.87;13.40;;;3.30;99.90;;;;;;5051618;28;20049;-74
2023/01/21 10:00:01;;;;;;;31.70;12.00;;;3.30;99.90;;;;;;5052725;28;20017;-75
2023/01/21 10:02:43;;;;;;;26.55;11.30;;;3.30;99.90;;;;;;5053019;28;20017;-74
2023/01/21 10:05:23;;;;;;;34.38;11.52;;;3.40;99.90;;;;;;5053524;28;20025;-76
2023/01/21 10:08:10;;;;;;;30.77;10.15;;;3.50;99.90;;;;;;5052990;28;20474;-74
2023/01/21 10:10:50;;;;;;;29.52;12.05;;;3.50;99.90;;;;;;5052922;28;20052;-74
2023/01/21 10:13:28;;;;;;;30.55;12.93;;;3.70;99.90;;;;;;5052757;28;20033;-73
2023/01/21 10:16:12;;;;;;;32.42;12.30;;;3.70;99.90;;;;;;5052447;28;20505;-73
2023/01/21 10:18:42;;;;;;;27.88;12.63;;;3.80;99.90;;;;;;5052740;28;20033;-74
2023/01/21 10:21:18;;;;;;;30.48;12.15;;;3.90;99.90;;;;;;5052524;28;20028;-73
2023/01/21 10:23:56;;;;;;;34.85;12.52;;;3.90;99.90;;;;;;5051180;28;20052;-74
2023/01/21 10:26:22;;;;;;;31.42;12.13;;;4.00;99.90;;;;;;5052490;28;20104;-73
2023/01/21 10:28:52;;;;;;;33.95;12.23;;;4.10;99.90;;;;;;5051141;28;20029;-74
2023/01/21 10:31:31;;;;;;;28.85;12.35;;;4.20;99.90;;;;;;5052588;28;20024;-73
2023/01/21 10:33:57;;;;;;;28.23;12.13;;;4.30;96.60;;;;;;5052379;28;20124;-75
2023/01/21 10:36:51;;;;;;;29.23;12.35;;;4.40;61.50;;;;;;5051121;28;20067;-76
2023/01/21 10:39:47;;;;;;;32.20;13.27;;;4.50;21.10;;;;;;5041264;28;20037;-74
2023/01/21 10:42:34;;;;;;;31.48;11.52;;;4.60;1.00;;;;;;5051977;28;20104;-73
2023/01/21 10:45:24;;;;;;;27.13;10.50;;;4.60;1.00;;;;;;5052301;28;20017;-73
2023/01/21 10:48:01;;;;;;;34.10;11.80;;;4.80;1.00;;;;;;5052417;28;20462;-73
2023/01/21 10:50:55;;;;;;;25.15;10.40;;;4.90;99.90;;;;;;5051864;28;20025;-73
2023/01/21 10:53:33;;;;;;;29.23;11.50;;;5.00;99.90;;;;;;5050429;28;20428;-74
2023/01/21 10:56:16;;;;;;;29.38;11.52;;;5.10;99.90;;;;;;5051983;28;20020;-74
2023/01/21 10:58:47;;;;;;;32.78;11.80;;;5.10;99.90;;;;;;5050657;28;20391;-73
2023/01/21 11:01:31;;;;;;;29.00;12.37;;;5.20;57.80;;;;;;5050845;28;20014;-74
2023/01/21 11:04:02;;;;;;;28.80;12.57;;;5.30;1.00;;;;;;5051620;28;20040;-73
2023/01/21 11:06:31;;;;;;;26.40;11.70;;;5.30;99.90;;;;;;5051670;28;20025;-74
2023/01/21 11:09:01;;;;;;;31.02;11.70;;;5.40;99.90;;;;;;5051600;28;20033;-75
2023/01/21 11:11:31;;;;;;;26.70;11.32;;;5.40;99.90;;;;;;5051464;28;20073;-74
2023/01/21 11:13:57;;;;;;;28.05;11.05;;;5.50;99.90;;;;;;5051523;28;20033;-74
2023/01/21 11:16:38;;;;;;;26.13;10.75;;;5.60;99.90;;;;;;5051287;28;20068;-74
2023/01/21 11:19:06;;;;;;;24.50;9.68;;;5.80;71.80;;;;;;5051387;28;20082;-74
2023/01/21 11:21:32;;;;;;;30.85;10.98;;;5.90;16.20;;;;;;5051292;28;20474;-74
2023/01/21 11:24:13;;;;;;;25.42;10.82;;;6.00;1.00;;;;;;5051171;28;20390;-73
2023/01/21 11:26:52;;;;;;;28.90;11.48;;;6.10;1.00;;;;;;5051328;28;20052;-74
2023/01/21 11:29:20;;;;;;;24.00;10.98;;;6.10;99.90;;;;;;5051260;28;20032;-75
2023/01/21 11:32:15;;;;;;;26.85;10.70;;;6.20;99.90;;;;;;5051098;28;20535;-74
2023/01/21 11:34:46;;;;;;;30.95;10.82;;;6.20;99.90;;;;;;5041760;28;20049;-74
2023/01/21 11:37:32;;;;;;;30.40;10.80;;;6.30;99.90;;;;;;5051503;28;20025;-74
2023/01/21 11:40:02;;;;;;;25.00;10.80;;;6.50;99.90;;;;;;5051007;28;20017;-73
2023/01/21 11:42:28;;;;;;;25.05;10.60;;;6.60;99.90;;;;;;5051192;28;20512;-74
2023/01/21 11:45:05;;;;;;;24.23;11.77;;;6.70;99.90;;;;;;5051067;28;20036;-74
2023/01/21 11:47:47;;;;;;;24.95;10.68;;;6.80;99.90;;;;;;5051709;28;20071;-74
2023/01/21 11:50:15;;;;;;;;;;;6.90;99.90;;;;;;5051576;28;20056;-74
2023/01/21 11:52:41;;;;;;;31.27;11.23;;;7.10;99.90;;;;;;5051320;28;20076;-74
2023/01/21 11:55:26;;;;;;;30.45;11.50;;;7.20;99.90;;;;;;5051077;28;20509;-74
2023/01/21 11:57:55;;;;;;;22.38;10.23;;;7.20;99.90;;;;;;5051017;28;20485;-74
2023/01/21 12:00:26;;;;;;;24.13;10.30;;;7.30;99.90;;;;;;5051393;28;20048;-74
2023/01/21 12:03:00;;;;;;;23.33;10.70;;;7.40;99.90;;;;;;5050838;28;20020;-74
2023/01/21 12:05:26;;;;;;;23.42;10.43;;;7.50;99.90;;;;;;5050819;28;20162;-74
2023/01/21 12:07:53;;;;;;;28.05;10.73;;;7.60;99.90;;;;;;5050911;28;20100;-74
2023/01/21 12:10:30;;;;;;;26.23;10.27;;;7.80;99.90;;;;;;5050822;28;20027;-74
2023/01/21 12:13:15;;;;;;;24.60;11.05;;;8.00;99.90;;;;;;5050826;28;20017;-74
2023/01/21 12:15:44;;;;;;;22.85;9.00;;;8.40;99.90;;;;;;5050982;28;20080;-74
2023/01/21 12:18:48;;;;;;;16.50;6.97;;;8.70;99.90;;;;;;5049510;28;20040;-74
2023/01/21 12:21:19;;;;;;;16.42;7.13;;;8.80;99.90;;;;;;4984237;28;20098;-74
2023/01/21 12:24:06;;;;;;;18.70;7.43;;;8.90;99.90;;;;;;5050612;28;20112;-74
2023/01/21 12:26:49;;;;;;;19.40;7.38;;;9.00;99.90;;;;;;5050464;28;20028;-73
2023/01/21 12:29:37;;;;;;;18.27;7.70;;;9.40;99.90;;;;;;5050549;28;20035;-73
2023/01/21 12:32:14;;;;;;;18.65;7.15;;;9.70;99.90;;;;;;5050720;28;20049;-74
2023/01/21 12:35:07;;;;;;;18.08;6.68;;;10.10;99.90;;;;;;5050597;28;20033;-73
2023/01/21 12:37:48;;;;;;;17.05;7.32;;;10.50;99.90;;;;;;5042097;28;20051;-73
2023/01/21 12:40:32;;;;;;;18.52;7.00;;;10.60;99.90;;;;;;5050604;28;20032;-73
2023/01/21 12:43:36;;;;;;;20.85;6.97;;;10.30;99.90;;;;;;5050549;28;20025;-73
2023/01/21 12:46:09;;;;;;;13.40;7.15;;;10.20;99.90;;;;;;4969059;28;20468;-73
2023/01/21 12:49:01;;;;;;;13.93;6.10;;;10.70;99.90;;;;;;5037567;28;20033;-73
2023/01/21 12:51:37;;;;;;;12.43;6.15;;;11.10;99.90;;;;;;5050437;28;20476;-73
2023/01/21 12:54:12;;;;;;;12.63;6.47;;;11.70;99.90;;;;;;5052563;28;20084;-75
2023/01/21 12:56:46;;;;;;;13.93;6.63;;;12.10;99.90;;;;;;5052215;28;20025;-74
2023/01/21 12:59:38;;;;;;;20.73;6.70;;;12.10;99.90;;;;;;5050982;28;20032;-74
2023/01/21 13:02:51;;;;;;;17.08;6.85;;;12.30;99.90;;;;;;5054087;28;20049;-74
2023/01/21 13:05:28;;;;;;;13.10;6.65;;;12.70;99.90;;;;;;4972517;28;20034;-75